sensor_id;sensor_type;location;lat;lon;timestamp;P1;durP1;ratioP1;P2;durP2;ratioP2
16579;SDS011;8402;51.466;6.806;2022-07-22T00:01:43;12.45;;;6.50;;
16579;SDS011;8402;51.466;6.806;2022-07-22T00:04:11;16.30;;;7.47;;
16579;SDS011;8402;51.466;6.806;2022-07-22T00:06:39;11.73;;;6.72;;
16579;SDS011;8402;51.466;6.806;2022-07-22T00:09:07;13.40;;;6.95;;
16579;SDS011;8402;51.466;6.806;2022-07-22T00:11:36;10.10;;;6.70;;
16579;SDS011;8402;51.466;6.806;2022-07-22T00:14:04;11.63;;;7.50;;
16579;SDS011;8402;51.466;6.806;2022-07-22T00:16:32;12.43;;;7.17;;
16579;SDS011;8402;51.466;6.806;2022-07-22T00:19:00;15.88;;;8.13;;
16579;SDS011;8402;51.466;6.806;2022-07-22T00:21:28;16.85;;;7.00;;
16579;SDS011;8402;51.466;6.806;2022-07-22T00:23:56;21.40;;;8.18;;
16579;SDS011;8402;51.466;6.806;2022-07-22T00:26:24;14.50;;;7.25;;
16579;SDS011;8402;51.466;6.806;2022-07-22T00:28:54;14.32;;;6.82;;
16579;SDS011;8402;51.466;6.806;2022-07-22T00:31:22;10.98;;;7.18;;
16579;SDS011;8402;51.466;6.806;2022-07-22T00:33:50;16.37;;;6.90;;
16579;SDS011;8402;51.466;6.806;2022-07-22T00:36:18;14.88;;;6.50;;
16579;SDS011;8402;51.466;6.806;2022-07-22T00:38:46;8.88;;;6.47;;
16579;SDS011;8402;51.466;6.806;2022-07-22T00:41:14;13.43;;;6.45;;
16579;SDS011;8402;51.466;6.806;2022-07-22T00:43:48;11.82;;;6.40;;
16579;SDS011;8402;51.466;6.806;2022-07-22T00:46:23;9.30;;;5.77;;
16579;SDS011;8402;51.466;6.806;2022-07-22T00:48:52;12.90;;;6.10;;
16579;SDS011;8402;51.466;6.806;2022-07-22T00:51:23;8.77;;;5.50;;
16579;SDS011;8402;51.466;6.806;2022-07-22T00:53:52;9.17;;;5.80;;
16579;SDS011;8402;51.466;6.806;2022-07-22T00:56:20;9.13;;;5.77;;
16579;SDS011;8402;51.466;6.806;2022-07-22T00:58:50;13.00;;;6.67;;
16579;SDS011;8402;51.466;6.806;2022-07-22T01:01:20;12.75;;;6.25;;
16579;SDS011;8402;51.466;6.806;2022-07-22T01:03:49;10.50;;;5.60;;
16579;SDS011;8402;51.466;6.806;2022-07-22T01:06:26;10.45;;;4.82;;
16579;SDS011;8402;51.466;6.806;2022-07-22T01:08:54;9.13;;;5.70;;
16579;SDS011;8402;51.466;6.806;2022-07-22T01:11:23;8.07;;;5.40;;
16579;SDS011;8402;51.466;6.806;2022-07-22T01:13:51;13.27;;;5.70;;
16579;SDS011;8402;51.466;6.806;2022-07-22T01:16:20;11.43;;;5.78;;
16579;SDS011;8402;51.466;6.806;2022-07-22T01:18:49;9.77;;;5.53;;
16579;SDS011;8402;51.466;6.806;2022-07-22T01:21:20;10.88;;;5.47;;
16579;SDS011;8402;51.466;6.806;2022-07-22T01:23:49;9.03;;;5.20;;
16579;SDS011;8402;51.466;6.806;2022-07-22T01:26:17;8.47;;;4.90;;
16579;SDS011;8402;51.466;6.806;2022-07-22T01:28:45;7.53;;;4.53;;
16579;SDS011;8402;51.466;6.806;2022-07-22T01:31:13;9.93;;;5.10;;
16579;SDS011;8402;51.466;6.806;2022-07-22T01:33:41;9.13;;;5.22;;
16579;SDS011;8402;51.466;6.806;2022-07-22T01:36:09;9.10;;;5.22;;
16579;SDS011;8402;51.466;6.806;2022-07-22T01:38:38;11.80;;;5.00;;
16579;SDS011;8402;51.466;6.806;2022-07-22T01:41:06;9.03;;;4.03;;
16579;SDS011;8402;51.466;6.806;2022-07-22T01:43:34;7.70;;;3.80;;
16579;SDS011;8402;51.466;6.806;2022-07-22T01:46:02;9.27;;;3.47;;
16579;SDS011;8402;51.466;6.806;2022-07-22T01:48:31;8.90;;;4.03;;
16579;SDS011;8402;51.466;6.806;2022-07-22T01:50:59;10.07;;;3.77;;
16579;SDS011;8402;51.466;6.806;2022-07-22T01:53:27;13.10;;;4.23;;
16579;SDS011;8402;51.466;6.806;2022-07-22T01:55:56;13.20;;;4.87;;
16579;SDS011;8402;51.466;6.806;2022-07-22T01:58:24;17.67;;;5.50;;
16579;SDS011;8402;51.466;6.806;2022-07-22T02:00:52;17.20;;;5.97;;
16579;SDS011;8402;51.466;6.806;2022-07-22T02:03:20;12.60;;;6.03;;
16579;SDS011;8402;51.466;6.806;2022-07-22T02:05:49;14.95;;;6.55;;
16579;SDS011;8402;51.466;6.806;2022-07-22T02:08:17;16.03;;;6.50;;
16579;SDS011;8402;51.466;6.806;2022-07-22T02:10:45;12.73;;;6.43;;
16579;SDS011;8402;51.466;6.806;2022-07-22T02:13:14;18.23;;;6.30;;
16579;SDS011;8402;51.466;6.806;2022-07-22T02:15:42;14.10;;;6.63;;
16579;SDS011;8402;51.466;6.806;2022-07-22T02:18:11;11.67;;;5.87;;
16579;SDS011;8402;51.466;6.806;2022-07-22T02:20:40;11.23;;;5.53;;
16579;SDS011;8402;51.466;6.806;2022-07-22T02:23:09;12.20;;;5.23;;
16579;SDS011;8402;51.466;6.806;2022-07-22T02:25:38;9.63;;;4.60;;
16579;SDS011;8402;51.466;6.806;2022-07-22T02:28:07;12.87;;;5.80;;
16579;SDS011;8402;51.466;6.806;2022-07-22T02:30:37;11.07;;;5.67;;
16579;SDS011;8402;51.466;6.806;2022-07-22T02:33:05;11.37;;;5.03;;
16579;SDS011;8402;51.466;6.806;2022-07-22T02:35:34;9.63;;;4.70;;
16579;SDS011;8402;51.466;6.806;2022-07-22T02:38:02;10.30;;;4.53;;
16579;SDS011;8402;51.466;6.806;2022-07-22T02:40:30;7.60;;;4.03;;
16579;SDS011;8402;51.466;6.806;2022-07-22T02:42:59;6.37;;;3.50;;
16579;SDS011;8402;51.466;6.806;2022-07-22T02:45:27;9.37;;;3.47;;
16579;SDS011;8402;51.466;6.806;2022-07-22T02:47:56;5.13;;;2.93;;
16579;SDS011;8402;51.466;6.806;2022-07-22T02:50:24;5.20;;;2.87;;
16579;SDS011;8402;51.466;6.806;2022-07-22T02:52:53;8.90;;;3.33;;
16579;SDS011;8402;51.466;6.806;2022-07-22T02:55:21;7.67;;;3.50;;
16579;SDS011;8402;51.466;6.806;2022-07-22T02:57:49;6.10;;;2.47;;
16579;SDS011;8402;51.466;6.806;2022-07-22T03:00:17;6.50;;;2.53;;
16579;SDS011;8402;51.466;6.806;2022-07-22T03:02:46;5.07;;;2.50;;
16579;SDS011;8402;51.466;6.806;2022-07-22T03:05:16;4.50;;;2.27;;
16579;SDS011;8402;51.466;6.806;2022-07-22T03:07:43;6.10;;;2.80;;
16579;SDS011;8402;51.466;6.806;2022-07-22T03:10:11;5.47;;;2.27;;
16579;SDS011;8402;51.466;6.806;2022-07-22T03:12:39;7.37;;;2.30;;
16579;SDS011;8402;51.466;6.806;2022-07-22T03:15:08;4.60;;;2.30;;
16579;SDS011;8402;51.466;6.806;2022-07-22T03:17:36;8.17;;;2.70;;
16579;SDS011;8402;51.466;6.806;2022-07-22T03:20:05;6.33;;;2.20;;
16579;SDS011;8402;51.466;6.806;2022-07-22T03:22:36;4.10;;;2.50;;
16579;SDS011;8402;51.466;6.806;2022-07-22T03:25:04;4.07;;;2.23;;
16579;SDS011;8402;51.466;6.806;2022-07-22T03:27:33;6.50;;;2.10;;
16579;SDS011;8402;51.466;6.806;2022-07-22T03:30:01;5.15;;;2.15;;
16579;SDS011;8402;51.466;6.806;2022-07-22T03:32:28;4.37;;;2.30;;
16579;SDS011;8402;51.466;6.806;2022-07-22T03:34:56;8.17;;;2.60;;
16579;SDS011;8402;51.466;6.806;2022-07-22T03:37:29;4.33;;;2.13;;
16579;SDS011;8402;51.466;6.806;2022-07-22T03:39:59;3.03;;;2.07;;
16579;SDS011;8402;51.466;6.806;2022-07-22T03:42:27;7.30;;;2.30;;
16579;SDS011;8402;51.466;6.806;2022-07-22T03:44:55;5.90;;;2.40;;
16579;SDS011;8402;51.466;6.806;2022-07-22T03:47:23;7.77;;;2.00;;
16579;SDS011;8402;51.466;6.806;2022-07-22T03:49:51;6.27;;;2.40;;
16579;SDS011;8402;51.466;6.806;2022-07-22T03:52:19;6.83;;;2.50;;
16579;SDS011;8402;51.466;6.806;2022-07-22T03:54:47;9.20;;;2.47;;
16579;SDS011;8402;51.466;6.806;2022-07-22T03:57:16;7.13;;;2.87;;
16579;SDS011;8402;51.466;6.806;2022-07-22T03:59:45;8.00;;;2.63;;
16579;SDS011;8402;51.466;6.806;2022-07-22T04:02:13;7.83;;;3.07;;
16579;SDS011;8402;51.466;6.806;2022-07-22T04:04:41;5.00;;;2.77;;
16579;SDS011;8402;51.466;6.806;2022-07-22T04:07:09;5.60;;;2.70;;
16579;SDS011;8402;51.466;6.806;2022-07-22T04:09:37;7.83;;;3.07;;
16579;SDS011;8402;51.466;6.806;2022-07-22T04:12:05;7.30;;;2.73;;
16579;SDS011;8402;51.466;6.806;2022-07-22T04:14:35;14.97;;;2.80;;
16579;SDS011;8402;51.466;6.806;2022-07-22T04:17:03;6.10;;;3.03;;
16579;SDS011;8402;51.466;6.806;2022-07-22T04:19:33;6.27;;;2.87;;
16579;SDS011;8402;51.466;6.806;2022-07-22T04:22:00;9.97;;;2.87;;
16579;SDS011;8402;51.466;6.806;2022-07-22T04:24:28;8.63;;;2.77;;
16579;SDS011;8402;51.466;6.806;2022-07-22T04:26:56;4.23;;;2.70;;
16579;SDS011;8402;51.466;6.806;2022-07-22T04:29:24;4.87;;;2.53;;
16579;SDS011;8402;51.466;6.806;2022-07-22T04:31:53;8.50;;;2.73;;
16579;SDS011;8402;51.466;6.806;2022-07-22T04:34:28;5.20;;;2.70;;
16579;SDS011;8402;51.466;6.806;2022-07-22T04:36:56;8.93;;;2.75;;
16579;SDS011;8402;51.466;6.806;2022-07-22T04:39:24;7.07;;;2.30;;
16579;SDS011;8402;51.466;6.806;2022-07-22T04:41:55;6.00;;;2.80;;
16579;SDS011;8402;51.466;6.806;2022-07-22T04:44:23;5.30;;;2.50;;
16579;SDS011;8402;51.466;6.806;2022-07-22T04:46:51;7.97;;;2.90;;
16579;SDS011;8402;51.466;6.806;2022-07-22T04:49:20;6.22;;;2.50;;
16579;SDS011;8402;51.466;6.806;2022-07-22T04:51:48;4.38;;;2.60;;
16579;SDS011;8402;51.466;6.806;2022-07-22T04:54:16;7.77;;;2.90;;
16579;SDS011;8402;51.466;6.806;2022-07-22T04:56:47;5.22;;;2.38;;
16579;SDS011;8402;51.466;6.806;2022-07-22T04:59:15;6.15;;;2.47;;
16579;SDS011;8402;51.466;6.806;2022-07-22T05:01:43;9.77;;;3.00;;
16579;SDS011;8402;51.466;6.806;2022-07-22T05:04:12;10.68;;;3.03;;
16579;SDS011;8402;51.466;6.806;2022-07-22T05:06:41;6.80;;;2.63;;
16579;SDS011;8402;51.466;6.806;2022-07-22T05:09:10;4.55;;;2.70;;
16579;SDS011;8402;51.466;6.806;2022-07-22T05:11:38;7.30;;;2.45;;
16579;SDS011;8402;51.466;6.806;2022-07-22T05:14:06;6.22;;;2.50;;
16579;SDS011;8402;51.466;6.806;2022-07-22T05:16:35;8.30;;;2.72;;
16579;SDS011;8402;51.466;6.806;2022-07-22T05:19:04;6.03;;;2.60;;
16579;SDS011;8402;51.466;6.806;2022-07-22T05:21:32;6.45;;;2.47;;
16579;SDS011;8402;51.466;6.806;2022-07-22T05:24:03;7.95;;;2.80;;
16579;SDS011;8402;51.466;6.806;2022-07-22T05:26:31;6.63;;;2.30;;
16579;SDS011;8402;51.466;6.806;2022-07-22T05:29:00;5.73;;;2.37;;
16579;SDS011;8402;51.466;6.806;2022-07-22T05:31:28;7.97;;;2.70;;
16579;SDS011;8402;51.466;6.806;2022-07-22T05:33:56;7.53;;;2.50;;
16579;SDS011;8402;51.466;6.806;2022-07-22T05:36:25;5.80;;;2.27;;
16579;SDS011;8402;51.466;6.806;2022-07-22T05:38:53;5.87;;;2.17;;
16579;SDS011;8402;51.466;6.806;2022-07-22T05:41:23;6.70;;;2.35;;
16579;SDS011;8402;51.466;6.806;2022-07-22T05:43:51;4.90;;;2.22;;
16579;SDS011;8402;51.466;6.806;2022-07-22T05:46:19;5.63;;;2.40;;
16579;SDS011;8402;51.466;6.806;2022-07-22T05:48:47;4.80;;;2.10;;
16579;SDS011;8402;51.466;6.806;2022-07-22T05:51:15;5.83;;;2.17;;
16579;SDS011;8402;51.466;6.806;2022-07-22T05:53:43;6.37;;;2.50;;
16579;SDS011;8402;51.466;6.806;2022-07-22T05:56:11;5.27;;;2.27;;
16579;SDS011;8402;51.466;6.806;2022-07-22T05:58:41;5.38;;;2.20;;
16579;SDS011;8402;51.466;6.806;2022-07-22T06:01:10;5.57;;;2.08;;
16579;SDS011;8402;51.466;6.806;2022-07-22T06:03:39;9.20;;;2.27;;
16579;SDS011;8402;51.466;6.806;2022-07-22T06:06:07;5.60;;;2.13;;
16579;SDS011;8402;51.466;6.806;2022-07-22T06:08:35;6.97;;;2.30;;
16579;SDS011;8402;51.466;6.806;2022-07-22T06:11:04;5.50;;;2.13;;
16579;SDS011;8402;51.466;6.806;2022-07-22T06:13:32;6.83;;;2.27;;
16579;SDS011;8402;51.466;6.806;2022-07-22T06:16:03;5.97;;;2.10;;
16579;SDS011;8402;51.466;6.806;2022-07-22T06:18:31;5.88;;;2.20;;
16579;SDS011;8402;51.466;6.806;2022-07-22T06:20:59;6.70;;;1.85;;
16579;SDS011;8402;51.466;6.806;2022-07-22T06:23:27;6.95;;;2.25;;
16579;SDS011;8402;51.466;6.806;2022-07-22T06:25:55;7.25;;;1.92;;
16579;SDS011;8402;51.466;6.806;2022-07-22T06:28:23;8.10;;;2.05;;
16579;SDS011;8402;51.466;6.806;2022-07-22T06:30:51;7.32;;;2.28;;
16579;SDS011;8402;51.466;6.806;2022-07-22T06:33:20;6.95;;;2.38;;
16579;SDS011;8402;51.466;6.806;2022-07-22T06:35:48;5.97;;;2.10;;
16579;SDS011;8402;51.466;6.806;2022-07-22T06:38:16;9.10;;;2.22;;
16579;SDS011;8402;51.466;6.806;2022-07-22T06:40:57;5.90;;;2.13;;
16579;SDS011;8402;51.466;6.806;2022-07-22T06:43:26;3.73;;;1.77;;
16579;SDS011;8402;51.466;6.806;2022-07-22T06:45:54;5.45;;;2.10;;
16579;SDS011;8402;51.466;6.806;2022-07-22T06:48:23;5.40;;;2.20;;
16579;SDS011;8402;51.466;6.806;2022-07-22T06:50:51;7.33;;;2.13;;
16579;SDS011;8402;51.466;6.806;2022-07-22T06:53:19;5.45;;;2.33;;
16579;SDS011;8402;51.466;6.806;2022-07-22T06:55:47;7.13;;;2.60;;
16579;SDS011;8402;51.466;6.806;2022-07-22T06:58:17;5.53;;;2.20;;
16579;SDS011;8402;51.466;6.806;2022-07-22T07:00:46;5.63;;;2.22;;
16579;SDS011;8402;51.466;6.806;2022-07-22T07:03:14;6.75;;;2.20;;
16579;SDS011;8402;51.466;6.806;2022-07-22T07:06:02;9.07;;;2.87;;
16579;SDS011;8402;51.466;6.806;2022-07-22T07:08:30;6.82;;;2.75;;
16579;SDS011;8402;51.466;6.806;2022-07-22T07:10:58;5.28;;;2.45;;
16579;SDS011;8402;51.466;6.806;2022-07-22T07:13:27;6.78;;;2.60;;
16579;SDS011;8402;51.466;6.806;2022-07-22T07:15:55;5.30;;;2.20;;
16579;SDS011;8402;51.466;6.806;2022-07-22T07:18:23;10.38;;;2.80;;
16579;SDS011;8402;51.466;6.806;2022-07-22T07:20:51;7.72;;;2.83;;
16579;SDS011;8402;51.466;6.806;2022-07-22T07:23:21;7.43;;;2.83;;
16579;SDS011;8402;51.466;6.806;2022-07-22T07:25:49;4.78;;;2.30;;
16579;SDS011;8402;51.466;6.806;2022-07-22T07:28:19;3.33;;;2.03;;
16579;SDS011;8402;51.466;6.806;2022-07-22T07:30:47;6.82;;;2.55;;
16579;SDS011;8402;51.466;6.806;2022-07-22T07:33:16;6.60;;;2.60;;
16579;SDS011;8402;51.466;6.806;2022-07-22T07:35:44;8.77;;;2.90;;
16579;SDS011;8402;51.466;6.806;2022-07-22T07:38:12;4.82;;;2.38;;
16579;SDS011;8402;51.466;6.806;2022-07-22T07:40:41;5.88;;;2.25;;
16579;SDS011;8402;51.466;6.806;2022-07-22T07:43:10;4.50;;;2.33;;
16579;SDS011;8402;51.466;6.806;2022-07-22T07:45:38;5.90;;;2.20;;
16579;SDS011;8402;51.466;6.806;2022-07-22T07:48:06;9.52;;;2.65;;
16579;SDS011;8402;51.466;6.806;2022-07-22T07:50:34;5.28;;;2.45;;
16579;SDS011;8402;51.466;6.806;2022-07-22T07:53:02;4.80;;;2.30;;
16579;SDS011;8402;51.466;6.806;2022-07-22T07:55:33;3.80;;;2.40;;
16579;SDS011;8402;51.466;6.806;2022-07-22T07:58:06;2.65;;;2.05;;
16579;SDS011;8402;51.466;6.806;2022-07-22T08:00:35;5.82;;;2.42;;
16579;SDS011;8402;51.466;6.806;2022-07-22T08:03:06;7.32;;;2.40;;
16579;SDS011;8402;51.466;6.806;2022-07-22T08:05:35;5.97;;;2.35;;
16579;SDS011;8402;51.466;6.806;2022-07-22T08:08:05;6.63;;;2.60;;
16579;SDS011;8402;51.466;6.806;2022-07-22T08:10:40;5.15;;;2.42;;
16579;SDS011;8402;51.466;6.806;2022-07-22T08:13:25;5.90;;;2.42;;
16579;SDS011;8402;51.466;6.806;2022-07-22T08:15:53;5.53;;;2.90;;
16579;SDS011;8402;51.466;6.806;2022-07-22T08:18:23;9.02;;;2.80;;
16579;SDS011;8402;51.466;6.806;2022-07-22T08:20:53;5.40;;;2.72;;
16579;SDS011;8402;51.466;6.806;2022-07-22T08:23:21;7.43;;;2.35;;
16579;SDS011;8402;51.466;6.806;2022-07-22T08:25:49;6.63;;;2.50;;
16579;SDS011;8402;51.466;6.806;2022-07-22T08:28:20;4.95;;;2.22;;
16579;SDS011;8402;51.466;6.806;2022-07-22T08:30:50;10.43;;;2.33;;
16579;SDS011;8402;51.466;6.806;2022-07-22T08:33:18;4.80;;;2.30;;
16579;SDS011;8402;51.466;6.806;2022-07-22T08:35:46;6.13;;;2.13;;
16579;SDS011;8402;51.466;6.806;2022-07-22T08:38:15;5.18;;;2.28;;
16579;SDS011;8402;51.466;6.806;2022-07-22T08:40:43;7.95;;;2.55;;
16579;SDS011;8402;51.466;6.806;2022-07-22T08:43:11;9.23;;;2.38;;
16579;SDS011;8402;51.466;6.806;2022-07-22T08:45:39;5.63;;;2.60;;
16579;SDS011;8402;51.466;6.806;2022-07-22T08:48:09;4.93;;;2.38;;
16579;SDS011;8402;51.466;6.806;2022-07-22T08:50:37;4.10;;;2.50;;
16579;SDS011;8402;51.466;6.806;2022-07-22T08:53:07;7.03;;;2.63;;
16579;SDS011;8402;51.466;6.806;2022-07-22T08:55:39;4.63;;;2.28;;
16579;SDS011;8402;51.466;6.806;2022-07-22T08:58:08;8.50;;;2.78;;
16579;SDS011;8402;51.466;6.806;2022-07-22T09:00:36;5.60;;;2.20;;
16579;SDS011;8402;51.466;6.806;2022-07-22T09:03:17;5.03;;;2.67;;
16579;SDS011;8402;51.466;6.806;2022-07-22T09:05:46;5.15;;;2.53;;
16579;SDS011;8402;51.466;6.806;2022-07-22T09:08:16;11.00;;;3.35;;
16579;SDS011;8402;51.466;6.806;2022-07-22T09:10:44;9.32;;;3.63;;
16579;SDS011;8402;51.466;6.806;2022-07-22T09:13:13;7.40;;;3.00;;
16579;SDS011;8402;51.466;6.806;2022-07-22T09:15:45;7.93;;;3.38;;
16579;SDS011;8402;51.466;6.806;2022-07-22T09:18:17;8.52;;;3.83;;
16579;SDS011;8402;51.466;6.806;2022-07-22T09:20:46;7.35;;;3.72;;
16579;SDS011;8402;51.466;6.806;2022-07-22T09:23:15;8.30;;;3.75;;
16579;SDS011;8402;51.466;6.806;2022-07-22T09:25:46;7.63;;;3.50;;
16579;SDS011;8402;51.466;6.806;2022-07-22T09:28:17;8.75;;;4.38;;
16579;SDS011;8402;51.466;6.806;2022-07-22T09:30:49;8.27;;;4.60;;
16579;SDS011;8402;51.466;6.806;2022-07-22T09:33:22;7.38;;;4.22;;
16579;SDS011;8402;51.466;6.806;2022-07-22T09:35:51;12.50;;;5.35;;
16579;SDS011;8402;51.466;6.806;2022-07-22T09:38:28;10.43;;;5.90;;
16579;SDS011;8402;51.466;6.806;2022-07-22T09:40:58;9.20;;;4.72;;
16579;SDS011;8402;51.466;6.806;2022-07-22T09:43:26;7.55;;;4.13;;
16579;SDS011;8402;51.466;6.806;2022-07-22T09:46:00;5.63;;;2.83;;
16579;SDS011;8402;51.466;6.806;2022-07-22T09:48:31;5.03;;;2.40;;
16579;SDS011;8402;51.466;6.806;2022-07-22T09:50:59;6.43;;;2.50;;
16579;SDS011;8402;51.466;6.806;2022-07-22T09:53:28;5.75;;;2.72;;
16579;SDS011;8402;51.466;6.806;2022-07-22T09:55:57;4.60;;;2.50;;
16579;SDS011;8402;51.466;6.806;2022-07-22T09:58:26;4.35;;;2.35;;
16579;SDS011;8402;51.466;6.806;2022-07-22T10:00:57;4.10;;;2.65;;
16579;SDS011;8402;51.466;6.806;2022-07-22T10:03:27;5.80;;;2.30;;
16579;SDS011;8402;51.466;6.806;2022-07-22T10:05:58;4.78;;;2.70;;
16579;SDS011;8402;51.466;6.806;2022-07-22T10:08:27;6.32;;;3.13;;
16579;SDS011;8402;51.466;6.806;2022-07-22T10:10:58;5.50;;;3.28;;
16579;SDS011;8402;51.466;6.806;2022-07-22T10:13:27;6.00;;;3.10;;
16579;SDS011;8402;51.466;6.806;2022-07-22T10:15:56;6.55;;;2.97;;
16579;SDS011;8402;51.466;6.806;2022-07-22T10:18:24;6.20;;;3.13;;
16579;SDS011;8402;51.466;6.806;2022-07-22T10:21:03;5.70;;;3.53;;
16579;SDS011;8402;51.466;6.806;2022-07-22T10:23:33;7.88;;;4.32;;
16579;SDS011;8402;51.466;6.806;2022-07-22T10:26:02;7.18;;;4.10;;
16579;SDS011;8402;51.466;6.806;2022-07-22T10:28:31;8.25;;;4.13;;
16579;SDS011;8402;51.466;6.806;2022-07-22T10:31:16;6.65;;;3.72;;
16579;SDS011;8402;51.466;6.806;2022-07-22T10:33:47;7.00;;;3.85;;
16579;SDS011;8402;51.466;6.806;2022-07-22T10:36:30;7.35;;;3.88;;
16579;SDS011;8402;51.466;6.806;2022-07-22T10:39:04;6.28;;;4.03;;
16579;SDS011;8402;51.466;6.806;2022-07-22T10:41:34;6.78;;;4.30;;
16579;SDS011;8402;51.466;6.806;2022-07-22T10:44:03;7.13;;;4.57;;
16579;SDS011;8402;51.466;6.806;2022-07-22T10:46:48;7.00;;;4.60;;
16579;SDS011;8402;51.466;6.806;2022-07-22T10:49:18;10.20;;;6.03;;
16579;SDS011;8402;51.466;6.806;2022-07-22T10:57:45;8.38;;;5.32;;
16579;SDS011;8402;51.466;6.806;2022-07-22T11:00:14;12.20;;;6.43;;
16579;SDS011;8402;51.466;6.806;2022-07-22T11:02:43;11.60;;;6.60;;
16579;SDS011;8402;51.466;6.806;2022-07-22T11:05:11;12.02;;;6.68;;
16579;SDS011;8402;51.466;6.806;2022-07-22T11:07:44;9.95;;;6.07;;
16579;SDS011;8402;51.466;6.806;2022-07-22T11:10:15;16.90;;;7.18;;
16579;SDS011;8402;51.466;6.806;2022-07-22T11:12:47;11.32;;;7.32;;
16579;SDS011;8402;51.466;6.806;2022-07-22T11:15:16;10.52;;;7.78;;
16579;SDS011;8402;51.466;6.806;2022-07-22T11:17:45;8.98;;;7.57;;
16579;SDS011;8402;51.466;6.806;2022-07-22T11:20:13;12.20;;;7.32;;
16579;SDS011;8402;51.466;6.806;2022-07-22T11:22:41;11.02;;;8.32;;
16579;SDS011;8402;51.466;6.806;2022-07-22T11:25:10;9.82;;;7.53;;
16579;SDS011;8402;51.466;6.806;2022-07-22T11:27:39;10.13;;;7.03;;
16579;SDS011;8402;51.466;6.806;2022-07-22T11:30:07;11.95;;;6.78;;
16579;SDS011;8402;51.466;6.806;2022-07-22T11:32:41;9.07;;;6.60;;
16579;SDS011;8402;51.466;6.806;2022-07-22T11:35:10;10.52;;;7.03;;
16579;SDS011;8402;51.466;6.806;2022-07-22T11:37:39;9.13;;;6.38;;
16579;SDS011;8402;51.466;6.806;2022-07-22T11:40:08;9.85;;;6.88;;
16579;SDS011;8402;51.466;6.806;2022-07-22T11:42:38;10.48;;;7.50;;
16579;SDS011;8402;51.466;6.806;2022-07-22T11:45:06;10.27;;;7.50;;
16579;SDS011;8402;51.466;6.806;2022-07-22T11:47:35;12.35;;;7.13;;
16579;SDS011;8402;51.466;6.806;2022-07-22T11:50:03;8.93;;;6.70;;
16579;SDS011;8402;51.466;6.806;2022-07-22T11:52:32;10.30;;;6.85;;
16579;SDS011;8402;51.466;6.806;2022-07-22T11:55:00;8.00;;;6.20;;
16579;SDS011;8402;51.466;6.806;2022-07-22T11:57:29;10.23;;;6.78;;
16579;SDS011;8402;51.466;6.806;2022-07-22T12:00:05;8.38;;;6.07;;
16579;SDS011;8402;51.466;6.806;2022-07-22T12:02:34;10.82;;;7.18;;
16579;SDS011;8402;51.466;6.806;2022-07-22T12:05:03;12.77;;;6.47;;
16579;SDS011;8402;51.466;6.806;2022-07-22T12:07:51;7.65;;;6.10;;
16579;SDS011;8402;51.466;6.806;2022-07-22T12:10:21;9.10;;;7.30;;
16579;SDS011;8402;51.466;6.806;2022-07-22T12:12:51;9.82;;;7.47;;
16579;SDS011;8402;51.466;6.806;2022-07-22T12:15:21;9.40;;;7.63;;
16579;SDS011;8402;51.466;6.806;2022-07-22T12:18:19;7.93;;;6.95;;
16579;SDS011;8402;51.466;6.806;2022-07-22T12:20:48;9.55;;;7.68;;
16579;SDS011;8402;51.466;6.806;2022-07-22T12:23:20;10.25;;;8.13;;
16579;SDS011;8402;51.466;6.806;2022-07-22T12:25:49;12.95;;;8.73;;
16579;SDS011;8402;51.466;6.806;2022-07-22T12:28:19;14.00;;;8.85;;
16579;SDS011;8402;51.466;6.806;2022-07-22T12:30:48;12.57;;;9.90;;
16579;SDS011;8402;51.466;6.806;2022-07-22T12:33:18;13.90;;;10.43;;
16579;SDS011;8402;51.466;6.806;2022-07-22T12:35:57;12.70;;;10.80;;
16579;SDS011;8402;51.466;6.806;2022-07-22T12:38:27;14.30;;;11.18;;
16579;SDS011;8402;51.466;6.806;2022-07-22T12:43:52;14.43;;;12.57;;
16579;SDS011;8402;51.466;6.806;2022-07-22T12:46:23;16.27;;;13.10;;
16579;SDS011;8402;51.466;6.806;2022-07-22T12:48:52;15.85;;;13.85;;
16579;SDS011;8402;51.466;6.806;2022-07-22T12:51:24;18.67;;;14.45;;
16579;SDS011;8402;51.466;6.806;2022-07-22T12:53:52;17.30;;;13.85;;
16579;SDS011;8402;51.466;6.806;2022-07-22T12:56:21;14.77;;;13.18;;
16579;SDS011;8402;51.466;6.806;2022-07-22T12:58:49;13.90;;;12.40;;
16579;SDS011;8402;51.466;6.806;2022-07-22T13:01:18;16.25;;;12.50;;
16579;SDS011;8402;51.466;6.806;2022-07-22T13:03:46;15.07;;;11.70;;
16579;SDS011;8402;51.466;6.806;2022-07-22T13:06:14;15.05;;;13.30;;
16579;SDS011;8402;51.466;6.806;2022-07-22T13:08:42;19.80;;;13.43;;
16579;SDS011;8402;51.466;6.806;2022-07-22T13:11:12;19.52;;;15.35;;
16579;SDS011;8402;51.466;6.806;2022-07-22T13:13:40;18.73;;;14.95;;
16579;SDS011;8402;51.466;6.806;2022-07-22T13:16:12;20.00;;;15.32;;
16579;SDS011;8402;51.466;6.806;2022-07-22T13:18:41;17.02;;;14.98;;
16579;SDS011;8402;51.466;6.806;2022-07-22T13:21:09;20.02;;;15.32;;
16579;SDS011;8402;51.466;6.806;2022-07-22T13:23:37;17.90;;;15.65;;
16579;SDS011;8402;51.466;6.806;2022-07-22T13:26:05;19.27;;;16.83;;
16579;SDS011;8402;51.466;6.806;2022-07-22T13:28:33;21.88;;;16.55;;
16579;SDS011;8402;51.466;6.806;2022-07-22T13:31:02;15.98;;;13.27;;
16579;SDS011;8402;51.466;6.806;2022-07-22T13:33:30;14.43;;;11.80;;
16579;SDS011;8402;51.466;6.806;2022-07-22T13:36:00;13.45;;;10.02;;
16579;SDS011;8402;51.466;6.806;2022-07-22T13:38:28;13.70;;;11.35;;
16579;SDS011;8402;51.466;6.806;2022-07-22T13:40:57;11.27;;;8.95;;
16579;SDS011;8402;51.466;6.806;2022-07-22T13:43:25;11.10;;;8.65;;
16579;SDS011;8402;51.466;6.806;2022-07-22T13:45:53;12.05;;;8.55;;
16579;SDS011;8402;51.466;6.806;2022-07-22T13:48:22;9.75;;;8.40;;
16579;SDS011;8402;51.466;6.806;2022-07-22T13:50:50;11.05;;;8.50;;
16579;SDS011;8402;51.466;6.806;2022-07-22T13:53:19;10.30;;;8.27;;
16579;SDS011;8402;51.466;6.806;2022-07-22T13:55:47;9.07;;;8.07;;
16579;SDS011;8402;51.466;6.806;2022-07-22T13:58:15;11.15;;;8.40;;
16579;SDS011;8402;51.466;6.806;2022-07-22T14:00:43;11.80;;;7.97;;
16579;SDS011;8402;51.466;6.806;2022-07-22T14:03:12;13.25;;;7.60;;
16579;SDS011;8402;51.466;6.806;2022-07-22T14:05:40;13.95;;;8.57;;
16579;SDS011;8402;51.466;6.806;2022-07-22T14:08:08;9.07;;;6.45;;
16579;SDS011;8402;51.466;6.806;2022-07-22T14:10:38;10.90;;;6.20;;
16579;SDS011;8402;51.466;6.806;2022-07-22T14:13:06;6.68;;;5.05;;
16579;SDS011;8402;51.466;6.806;2022-07-22T14:15:34;9.88;;;6.30;;
16579;SDS011;8402;51.466;6.806;2022-07-22T14:18:02;8.07;;;4.93;;
16579;SDS011;8402;51.466;6.806;2022-07-22T14:20:33;12.68;;;5.20;;
16579;SDS011;8402;51.466;6.806;2022-07-22T14:23:01;6.95;;;4.45;;
16579;SDS011;8402;51.466;6.806;2022-07-22T14:25:31;12.45;;;5.50;;
16579;SDS011;8402;51.466;6.806;2022-07-22T14:28:01;7.38;;;5.10;;
16579;SDS011;8402;51.466;6.806;2022-07-22T14:30:49;7.50;;;4.55;;
16579;SDS011;8402;51.466;6.806;2022-07-22T14:33:17;7.72;;;4.80;;
16579;SDS011;8402;51.466;6.806;2022-07-22T14:35:45;8.00;;;4.70;;
16579;SDS011;8402;51.466;6.806;2022-07-22T14:38:13;6.70;;;4.43;;
16579;SDS011;8402;51.466;6.806;2022-07-22T14:40:41;8.82;;;5.13;;
16579;SDS011;8402;51.466;6.806;2022-07-22T14:43:10;7.38;;;5.05;;
16579;SDS011;8402;51.466;6.806;2022-07-22T14:45:58;6.18;;;4.68;;
16579;SDS011;8402;51.466;6.806;2022-07-22T14:48:26;7.30;;;4.65;;
16579;SDS011;8402;51.466;6.806;2022-07-22T14:50:54;9.23;;;4.32;;
16579;SDS011;8402;51.466;6.806;2022-07-22T14:53:22;5.03;;;4.15;;
16579;SDS011;8402;51.466;6.806;2022-07-22T14:55:51;7.15;;;4.32;;
16579;SDS011;8402;51.466;6.806;2022-07-22T14:58:20;7.68;;;3.70;;
16579;SDS011;8402;51.466;6.806;2022-07-22T15:00:48;5.70;;;3.83;;
16579;SDS011;8402;51.466;6.806;2022-07-22T15:03:16;6.00;;;3.80;;
16579;SDS011;8402;51.466;6.806;2022-07-22T15:05:44;5.15;;;3.75;;
16579;SDS011;8402;51.466;6.806;2022-07-22T15:08:13;6.65;;;3.38;;
16579;SDS011;8402;51.466;6.806;2022-07-22T15:10:41;5.53;;;3.50;;
16579;SDS011;8402;51.466;6.806;2022-07-22T15:13:09;4.57;;;3.20;;
16579;SDS011;8402;51.466;6.806;2022-07-22T15:15:38;5.63;;;3.28;;
16579;SDS011;8402;51.466;6.806;2022-07-22T15:18:06;7.70;;;3.72;;